sensor_id;sensor_type;location;lat;lon;timestamp;pressure;altitude;pressure_sealevel;temperature;humidity
23427;BME280;41148;45.420;10.952;2023-01-19T00:00:44;99084.84;;;4.75;100.00
23427;BME280;41148;45.420;10.952;2023-01-19T00:03:12;99087.69;;;4.68;100.00
23427;BME280;41148;45.420;10.952;2023-01-19T00:05:42;99074.72;;;4.60;100.00
23427;BME280;41148;45.420;10.952;2023-01-19T00:08:10;99075.69;;;4.57;100.00
23427;BME280;41148;45.420;10.952;2023-01-19T00:10:43;99079.97;;;4.62;100.00
23427;BME280;41148;45.420;10.952;2023-01-19T00:13:11;99084.19;;;4.67;100.00
23427;BME280;41148;45.420;10.952;2023-01-19T00:15:39;99086.03;;;4.65;100.00
23427;BME280;41148;45.420;10.952;2023-01-19T00:18:06;99089.31;;;4.72;100.00
23427;BME280;41148;45.420;10.952;2023-01-19T00:20:38;99080.22;;;4.83;100.00
23427;BME280;41148;45.420;10.952;2023-01-19T00:23:06;99085.28;;;4.89;100.00
23427;BME280;41148;45.420;10.952;2023-01-19T00:25:35;99083.72;;;4.82;100.00
23427;BME280;41148;45.420;10.952;2023-01-19T00:28:13;99076.34;;;4.66;100.00
23427;BME280;41148;45.420;10.952;2023-01-19T00:30:41;99089.00;;;4.53;100.00
23427;BME280;41148;45.420;10.952;2023-01-19T00:33:10;99092.66;;;4.49;100.00
23427;BME280;41148;45.420;10.952;2023-01-19T00:35:41;99075.19;;;4.45;100.00
23427;BME280;41148;45.420;10.952;2023-01-19T00:38:10;99074.34;;;4.43;100.00
23427;BME280;41148;45.420;10.952;2023-01-19T00:40:38;99066.28;;;4.49;100.00
23427;BME280;41148;45.420;10.952;2023-01-19T00:43:05;99070.09;;;4.39;100.00
23427;BME280;41148;45.420;10.952;2023-01-19T00:45:33;99055.44;;;4.28;100.00
23427;BME280;41148;45.420;10.952;2023-01-19T00:48:00;99066.75;;;4.32;100.00
23427;BME280;41148;45.420;10.952;2023-01-19T00:50:29;99060.09;;;4.19;100.00
23427;BME280;41148;45.420;10.952;2023-01-19T00:52:58;99048.88;;;4.12;100.00
23427;BME280;41148;45.420;10.952;2023-01-19T00:55:29;99058.19;;;4.25;100.00
23427;BME280;41148;45.420;10.952;2023-01-19T00:57:57;99057.38;;;4.22;100.00
23427;BME280;41148;45.420;10.952;2023-01-19T01:00:24;99060.56;;;4.35;100.00
23427;BME280;41148;45.420;10.952;2023-01-19T01:02:52;99061.41;;;4.35;100.00
23427;BME280;41148;45.420;10.952;2023-01-19T01:05:20;99074.50;;;4.38;100.00
23427;BME280;41148;45.420;10.952;2023-01-19T01:07:48;99074.34;;;4.43;100.00
23427;BME280;41148;45.420;10.952;2023-01-19T01:10:25;99076.81;;;4.49;100.00
23427;BME280;41148;45.420;10.952;2023-01-19T01:12:53;99074.28;;;4.46;100.00
23427;BME280;41148;45.420;10.952;2023-01-19T01:15:24;99077.59;;;4.52;100.00
23427;BME280;41148;45.420;10.952;2023-01-19T01:17:53;99076.72;;;4.52;100.00
23427;BME280;41148;45.420;10.952;2023-01-19T01:20:25;99069.59;;;4.55;100.00
23427;BME280;41148;45.420;10.952;2023-01-19T01:22:55;99077.84;;;4.43;100.00
23427;BME280;41148;45.420;10.952;2023-01-19T01:25:24;99075.31;;;4.40;100.00
23427;BME280;41148;45.420;10.952;2023-01-19T01:27:52;99077.00;;;4.43;100.00
23427;BME280;41148;45.420;10.952;2023-01-19T01:30:20;99075.00;;;4.51;99.24
23427;BME280;41148;45.420;10.952;2023-01-19T01:32:47;99076.56;;;4.58;99.11
23427;BME280;41148;45.420;10.952;2023-01-19T01:35:15;99072.91;;;4.62;100.00
23427;BME280;41148;45.420;10.952;2023-01-19T01:37:43;99079.16;;;4.59;99.99
23427;BME280;41148;45.420;10.952;2023-01-19T01:40:13;99076.59;;;4.56;99.37
23427;BME280;41148;45.420;10.952;2023-01-19T01:42:41;99075.53;;;4.62;98.95
23427;BME280;41148;45.420;10.952;2023-01-19T01:45:27;99069.41;;;4.62;98.94
23427;BME280;41148;45.420;10.952;2023-01-19T01:48:00;99061.50;;;4.62;99.57
23427;BME280;41148;45.420;10.952;2023-01-19T01:50:31;99057.34;;;4.53;99.74
23427;BME280;41148;45.420;10.952;2023-01-19T01:53:05;99070.41;;;4.57;99.74
23427;BME280;41148;45.420;10.952;2023-01-19T01:55:38;99069.50;;;4.58;100.00
23427;BME280;41148;45.420;10.952;2023-01-19T01:58:09;99067.63;;;4.64;99.73
23427;BME280;41148;45.420;10.952;2023-01-19T02:00:38;99069.50;;;4.58;100.00
23427;BME280;41148;45.420;10.952;2023-01-19T02:03:25;99058.03;;;4.59;100.00
23427;BME280;41148;45.420;10.952;2023-01-19T02:05:56;99072.31;;;4.52;99.44
23427;BME280;41148;45.420;10.952;2023-01-19T02:09:08;99065.00;;;4.62;98.90
23427;BME280;41148;45.420;10.952;2023-01-19T02:11:35;99063.50;;;4.53;100.00
23427;BME280;41148;45.420;10.952;2023-01-19T02:14:21;99057.44;;;4.50;100.00
23427;BME280;41148;45.420;10.952;2023-01-19T02:16:48;99060.13;;;4.48;100.00
23427;BME280;41148;45.420;10.952;2023-01-19T02:19:22;99048.81;;;4.45;100.00
23427;BME280;41148;45.420;10.952;2023-01-19T02:22:04;99065.31;;;4.51;100.00
23427;BME280;41148;45.420;10.952;2023-01-19T02:24:37;99060.84;;;4.53;100.00
23427;BME280;41148;45.420;10.952;2023-01-19T02:27:06;99059.19;;;4.51;100.00
23427;BME280;41148;45.420;10.952;2023-01-19T02:29:34;99055.56;;;4.53;99.74
23427;BME280;41148;45.420;10.952;2023-01-19T02:32:01;99055.19;;;4.38;100.00
23427;BME280;41148;45.420;10.952;2023-01-19T02:34:30;99062.91;;;4.44;100.00
23427;BME280;41148;45.420;10.952;2023-01-19T02:37:12;99057.00;;;4.36;100.00
23427;BME280;41148;45.420;10.952;2023-01-19T02:39:49;99048.41;;;4.29;100.00
23427;BME280;41148;45.420;10.952;2023-01-19T02:42:22;99054.53;;;4.29;100.00
23427;BME280;41148;45.420;10.952;2023-01-19T02:44:53;99055.28;;;4.35;100.00
23427;BME280;41148;45.420;10.952;2023-01-19T02:47:22;99055.59;;;4.22;99.77
23427;BME280;41148;45.420;10.952;2023-01-19T02:49:55;99045.00;;;4.25;98.94
23427;BME280;41148;45.420;10.952;2023-01-19T02:52:24;99047.59;;;4.27;99.01
23427;BME280;41148;45.420;10.952;2023-01-19T02:55:18;99061.69;;;4.26;99.35
23427;BME280;41148;45.420;10.952;2023-01-19T02:57:59;99064.16;;;4.30;100.00
23427;BME280;41148;45.420;10.952;2023-01-19T03:00:51;99080.34;;;4.18;100.00
23427;BME280;41148;45.420;10.952;2023-01-19T03:03:40;99074.84;;;4.26;100.00
23427;BME280;41148;45.420;10.952;2023-01-19T03:06:17;99086.03;;;4.34;100.00
23427;BME280;41148;45.420;10.952;2023-01-19T03:11:53;99089.31;;;4.42;100.00
23427;BME280;41148;45.420;10.952;2023-01-19T03:14:23;99083.81;;;4.50;100.00
23427;BME280;41148;45.420;10.952;2023-01-19T03:16:56;99076.06;;;4.45;99.97
23427;BME280;41148;45.420;10.952;2023-01-19T03:19:28;99082.88;;;4.52;99.51
23427;BME280;41148;45.420;10.952;2023-01-19T03:22:00;99078.44;;;4.53;99.69
23427;BME280;41148;45.420;10.952;2023-01-19T03:24:33;99083.72;;;4.54;99.80
23427;BME280;41148;45.420;10.952;2023-01-19T03:27:31;99084.31;;;4.63;100.00
23427;BME280;41148;45.420;10.952;2023-01-19T03:30:06;99099.28;;;4.62;100.00
23427;BME280;41148;45.420;10.952;2023-01-19T03:32:46;99101.25;;;4.55;100.00
23427;BME280;41148;45.420;10.952;2023-01-19T03:35:17;99099.47;;;4.56;100.00
23427;BME280;41148;45.420;10.952;2023-01-19T03:37:47;99100.09;;;4.66;100.00
23427;BME280;41148;45.420;10.952;2023-01-19T03:40:16;99094.84;;;4.64;100.00
23427;BME280;41148;45.420;10.952;2023-01-19T03:42:44;99101.06;;;4.62;100.00
23427;BME280;41148;45.420;10.952;2023-01-19T03:45:13;99102.72;;;4.66;100.00
23427;BME280;41148;45.420;10.952;2023-01-19T03:47:41;99108.91;;;4.63;100.00
23427;BME280;41148;45.420;10.952;2023-01-19T03:50:13;99112.72;;;4.53;100.00
23427;BME280;41148;45.420;10.952;2023-01-19T03:53:07;99102.41;;;4.76;100.00
23427;BME280;41148;45.420;10.952;2023-01-19T03:55:36;99101.22;;;4.57;100.00
23427;BME280;41148;45.420;10.952;2023-01-19T03:58:03;99085.69;;;4.46;100.00
23427;BME280;41148;45.420;10.952;2023-01-19T04:00:32;99087.31;;;4.50;100.00
23427;BME280;41148;45.420;10.952;2023-01-19T04:02:59;99077.53;;;4.55;100.00
23427;BME280;41148;45.420;10.952;2023-01-19T04:05:28;99094.00;;;4.62;100.00
23427;BME280;41148;45.420;10.952;2023-01-19T04:07:55;99085.13;;;4.66;100.00
23427;BME280;41148;45.420;10.952;2023-01-19T04:10:23;99101.66;;;4.71;100.00
23427;BME280;41148;45.420;10.952;2023-01-19T04:12:56;99092.00;;;4.70;100.00
23427;BME280;41148;45.420;10.952;2023-01-19T04:15:24;99094.69;;;4.69;100.00
23427;BME280;41148;45.420;10.952;2023-01-19T04:17:52;99094.69;;;4.69;100.00
23427;BME280;41148;45.420;10.952;2023-01-19T04:20:19;99087.09;;;4.58;100.00
23427;BME280;41148;45.420;10.952;2023-01-19T04:22:47;99086.09;;;4.62;100.00
23427;BME280;41148;45.420;10.952;2023-01-19T04:25:15;99093.09;;;4.63;100.00
23427;BME280;41148;45.420;10.952;2023-01-19T04:27:43;99088.72;;;4.62;100.00
23427;BME280;41148;45.420;10.952;2023-01-19T04:30:10;99098.16;;;4.71;100.00
23427;BME280;41148;45.420;10.952;2023-01-19T04:32:38;99088.06;;;4.55;100.00
23427;BME280;41148;45.420;10.952;2023-01-19T04:35:06;99096.78;;;4.57;100.00
23427;BME280;41148;45.420;10.952;2023-01-19T04:37:33;99091.63;;;4.54;100.00
23427;BME280;41148;45.420;10.952;2023-01-19T04:40:00;99094.09;;;4.59;100.00
23427;BME280;41148;45.420;10.952;2023-01-19T04:42:28;99090.97;;;4.46;100.00
23427;BME280;41148;45.420;10.952;2023-01-19T04:44:55;99098.88;;;4.46;100.00
23427;BME280;41148;45.420;10.952;2023-01-19T04:47:23;99109.53;;;4.42;100.00
23427;BME280;41148;45.420;10.952;2023-01-19T04:49:50;99101.88;;;4.32;100.00
23427;BME280;41148;45.420;10.952;2023-01-19T04:52:17;99088.81;;;4.29;100.00
23427;BME280;41148;45.420;10.952;2023-01-19T04:54:45;99101.16;;;4.27;100.00
23427;BME280;41148;45.420;10.952;2023-01-19T04:57:13;99086.63;;;4.44;100.00
23427;BME280;41148;45.420;10.952;2023-01-19T04:59:40;99097.28;;;4.41;100.00
23427;BME280;41148;45.420;10.952;2023-01-19T05:02:08;99098.19;;;4.40;100.00
23427;BME280;41148;45.420;10.952;2023-01-19T05:04:35;99105.63;;;4.24;100.00
23427;BME280;41148;45.420;10.952;2023-01-19T05:07:02;99110.66;;;4.33;100.00
23427;BME280;41148;45.420;10.952;2023-01-19T05:09:30;99114.59;;;4.49;100.00
23427;BME280;41148;45.420;10.952;2023-01-19T05:11:57;99112.97;;;4.45;100.00
23427;BME280;41148;45.420;10.952;2023-01-19T05:14:25;99116.59;;;4.41;100.00
23427;BME280;41148;45.420;10.952;2023-01-19T05:16:52;99121.81;;;4.43;100.00
23427;BME280;41148;45.420;10.952;2023-01-19T05:19:19;99120.94;;;4.42;100.00
23427;BME280;41148;45.420;10.952;2023-01-19T05:21:47;99115.81;;;4.38;100.00
23427;BME280;41148;45.420;10.952;2023-01-19T05:24:14;99112.97;;;4.45;100.00
23427;BME280;41148;45.420;10.952;2023-01-19T05:26:42;99111.53;;;4.34;100.00
23427;BME280;41148;45.420;10.952;2023-01-19T05:29:09;99113.19;;;4.38;100.00
23427;BME280;41148;45.420;10.952;2023-01-19T05:31:37;99123.63;;;4.41;100.00
23427;BME280;41148;45.420;10.952;2023-01-19T05:34:04;99126.16;;;4.45;100.00
23427;BME280;41148;45.420;10.952;2023-01-19T05:36:32;99134.78;;;4.50;100.00
23427;BME280;41148;45.420;10.952;2023-01-19T05:38:59;99133.81;;;4.54;100.00
23427;BME280;41148;45.420;10.952;2023-01-19T05:41:26;99138.25;;;4.52;100.00
23427;BME280;41148;45.420;10.952;2023-01-19T05:43:54;99137.44;;;4.50;100.00
23427;BME280;41148;45.420;10.952;2023-01-19T05:46:21;99144.47;;;4.50;100.00
23427;BME280;41148;45.420;10.952;2023-01-19T05:48:49;99151.63;;;4.46;100.00
23427;BME280;41148;45.420;10.952;2023-01-19T05:51:17;99143.81;;;4.42;100.00
23427;BME280;41148;45.420;10.952;2023-01-19T05:53:44;99155.47;;;4.33;100.00
23427;BME280;41148;45.420;10.952;2023-01-19T05:56:12;99152.84;;;4.35;100.00
23427;BME280;41148;45.420;10.952;2023-01-19T05:58:39;99150.25;;;4.31;100.00
23427;BME280;41148;45.420;10.952;2023-01-19T06:01:08;99156.63;;;4.23;100.00
23427;BME280;41148;45.420;10.952;2023-01-19T06:03:36;99158.75;;;4.10;100.00
23427;BME280;41148;45.420;10.952;2023-01-19T06:06:05;99156.00;;;4.13;100.00
23427;BME280;41148;45.420;10.952;2023-01-19T06:08:33;99161.28;;;4.13;100.00
23427;BME280;41148;45.420;10.952;2023-01-19T06:11:00;99169.81;;;4.23;100.00
23427;BME280;41148;45.420;10.952;2023-01-19T06:13:27;99169.94;;;4.18;100.00
23427;BME280;41148;45.420;10.952;2023-01-19T06:15:56;99171.00;;;4.11;100.00
23427;BME280;41148;45.420;10.952;2023-01-19T06:18:24;99176.00;;;4.22;100.00
23427;BME280;41148;45.420;10.952;2023-01-19T06:20:52;99175.03;;;4.26;100.00
23427;BME280;41148;45.420;10.952;2023-01-19T06:23:25;99176.72;;;4.28;100.00
23427;BME280;41148;45.420;10.952;2023-01-19T06:25:53;99182.00;;;4.28;100.00
23427;BME280;41148;45.420;10.952;2023-01-19T06:28:20;99193.09;;;4.40;100.00
23427;BME280;41148;45.420;10.952;2023-01-19T06:30:49;99199.44;;;4.32;100.00
23427;BME280;41148;45.420;10.952;2023-01-19T06:33:17;99207.59;;;4.23;100.00
23427;BME280;41148;45.420;10.952;2023-01-19T06:35:47;99212.53;;;4.37;100.00
23427;BME280;41148;45.420;10.952;2023-01-19T06:38:15;99215.25;;;4.32;100.00
23427;BME280;41148;45.420;10.952;2023-01-19T06:40:45;99214.53;;;4.27;100.00
23427;BME280;41148;45.420;10.952;2023-01-19T06:43:12;99206.66;;;4.26;100.00
23427;BME280;41148;45.420;10.952;2023-01-19T06:45:40;99206.63;;;4.27;100.00
23427;BME280;41148;45.420;10.952;2023-01-19T06:48:08;99205.03;;;4.20;100.00
23427;BME280;41148;45.420;10.952;2023-01-19T06:50:35;99216.09;;;4.35;100.00
23427;BME280;41148;45.420;10.952;2023-01-19T06:53:02;99218.63;;;4.39;100.00
23427;BME280;41148;45.420;10.952;2023-01-19T06:55:30;99223.66;;;4.48;100.00
23427;BME280;41148;45.420;10.952;2023-01-19T06:57:58;99214.34;;;4.34;100.00
23427;BME280;41148;45.420;10.952;2023-01-19T07:00:25;99232.94;;;4.29;100.00
23427;BME280;41148;45.420;10.952;2023-01-19T07:02:53;99247.16;;;4.22;100.00
23427;BME280;41148;45.420;10.952;2023-01-19T07:05:21;99237.25;;;3.97;100.00
23427;BME280;41148;45.420;10.952;2023-01-19T07:07:53;99238.16;;;3.95;100.00
23427;BME280;41148;45.420;10.952;2023-01-19T07:10:21;99238.38;;;3.87;100.00
23427;BME280;41148;45.420;10.952;2023-01-19T07:12:49;99265.44;;;3.94;100.00
23427;BME280;41148;45.420;10.952;2023-01-19T07:15:18;99267.41;;;3.84;100.00
23427;BME280;41148;45.420;10.952;2023-01-19T07:17:45;99271.72;;;3.88;100.00
23427;BME280;41148;45.420;10.952;2023-01-19T07:20:13;99267.53;;;3.80;100.00
23427;BME280;41148;45.420;10.952;2023-01-19T07:22:41;99277.13;;;3.82;100.00
23427;BME280;41148;45.420;10.952;2023-01-19T07:25:12;99273.38;;;3.92;100.00
23427;BME280;41148;45.420;10.952;2023-01-19T07:27:40;99287.78;;;3.78;100.00
23427;BME280;41148;45.420;10.952;2023-01-19T07:30:08;99274.69;;;3.73;100.00
23427;BME280;41148;45.420;10.952;2023-01-19T07:32:35;99299.63;;;3.95;100.00
23427;BME280;41148;45.420;10.952;2023-01-19T07:35:03;99298.81;;;3.93;100.00
23427;BME280;41148;45.420;10.952;2023-01-19T07:37:31;99305.16;;;3.86;100.00
23427;BME280;41148;45.420;10.952;2023-01-19T07:39:58;99308.63;;;3.88;100.00
23427;BME280;41148;45.420;10.952;2023-01-19T07:42:26;99312.16;;;3.86;100.00
23427;BME280;41148;45.420;10.952;2023-01-19T07:44:53;99322.56;;;3.92;100.00
23427;BME280;41148;45.420;10.952;2023-01-19T07:47:20;99322.53;;;3.93;100.00
23427;BME280;41148;45.420;10.952;2023-01-19T07:49:49;99313.94;;;3.85;100.00
23427;BME280;41148;45.420;10.952;2023-01-19T07:52:51;99342.44;;;4.07;100.00
23427;BME280;41148;45.420;10.952;2023-01-19T07:55:20;99337.84;;;4.16;100.00
23427;BME280;41148;45.420;10.952;2023-01-19T07:57:50;99342.06;;;4.22;100.00
23427;BME280;41148;45.420;10.952;2023-01-19T08:00:18;99343.66;;;4.29;100.00
23427;BME280;41148;45.420;10.952;2023-01-19T08:02:48;99355.81;;;4.36;100.00
23427;BME280;41148;45.420;10.952;2023-01-19T08:05:20;99363.38;;;4.50;100.00
23427;BME280;41148;45.420;10.952;2023-01-19T08:07:47;99365.06;;;4.54;100.00
23427;BME280;41148;45.420;10.952;2023-01-19T08:10:15;99372.97;;;4.54;100.00
23427;BME280;41148;45.420;10.952;2023-01-19T08:12:43;99373.88;;;4.51;100.00
23427;BME280;41148;45.420;10.952;2023-01-19T08:15:10;99390.78;;;4.43;100.00
23427;BME280;41148;45.420;10.952;2023-01-19T08:17:38;99396.88;;;4.46;100.00
23427;BME280;41148;45.420;10.952;2023-01-19T08:20:06;99416.72;;;4.25;100.00
23427;BME280;41148;45.420;10.952;2023-01-19T08:22:36;99415.16;;;4.17;100.00
23427;BME280;41148;45.420;10.952;2023-01-19T08:25:03;99431.44;;;3.94;100.00
23427;BME280;41148;45.420;10.952;2023-01-19T08:27:31;99417.81;;;3.73;100.00
23427;BME280;41148;45.420;10.952;2023-01-19T08:29:58;99409.91;;;3.73;100.00
23427;BME280;41148;45.420;10.952;2023-01-19T08:32:26;99440.66;;;3.73;100.00
23427;BME280;41148;45.420;10.952;2023-01-19T08:34:53;99458.38;;;3.65;100.00
23427;BME280;41148;45.420;10.952;2023-01-19T08:37:21;99449.09;;;3.45;100.00
23427;BME280;41148;45.420;10.952;2023-01-19T08:39:48;99466.88;;;3.33;100.00
23427;BME280;41148;45.420;10.952;2023-01-19T08:42:16;99477.88;;;3.05;100.00
23427;BME280;41148;45.420;10.952;2023-01-19T08:44:43;99489.41;;;3.00;100.00
23427;BME280;41148;45.420;10.952;2023-01-19T08:47:24;99490.47;;;2.86;100.00
23427;BME280;41148;45.420;10.952;2023-01-19T08:49:51;99497.00;;;2.63;100.00
23427;BME280;41148;45.420;10.952;2023-01-19T08:52:56;99505.84;;;2.55;100.00
23427;BME280;41148;45.420;10.952;2023-01-19T08:55:25;99505.06;;;2.49;100.00
23427;BME280;41148;45.420;10.952;2023-01-19T08:57:54;99512.00;;;2.54;100.00
23427;BME280;41148;45.420;10.952;2023-01-19T09:00:24;99516.38;;;2.55;100.00
23427;BME280;41148;45.420;10.952;2023-01-19T09:02:53;99511.94;;;2.61;100.00
23427;BME280;41148;45.420;10.952;2023-01-19T09:05:21;99521.81;;;2.43;100.00
23427;BME280;41148;45.420;10.952;2023-01-19T09:07:49;99511.22;;;2.48;100.00
23427;BME280;41148;45.420;10.952;2023-01-19T09:10:17;99515.38;;;2.64;100.00
23427;BME280;41148;45.420;10.952;2023-01-19T09:12:45;99529.41;;;2.63;100.00
23427;BME280;41148;45.420;10.952;2023-01-19T09:15:13;99525.94;;;2.59;100.00
23427;BME280;41148;45.420;10.952;2023-01-19T09:17:41;99520.94;;;2.43;100.00
23427;BME280;41148;45.420;10.952;2023-01-19T09:20:09;99528.81;;;2.44;100.00
23427;BME280;41148;45.420;10.952;2023-01-19T09:22:36;99533.03;;;2.54;100.00
23427;BME280;41148;45.420;10.952;2023-01-19T09:25:06;99534.81;;;2.51;100.00
23427;BME280;41148;45.420;10.952;2023-01-19T09:27:34;99542.59;;;2.60;100.00
23427;BME280;41148;45.420;10.952;2023-01-19T09:30:03;99547.72;;;2.69;100.00
23427;BME280;41148;45.420;10.952;2023-01-19T09:32:30;99552.13;;;2.67;100.00
23427;BME280;41148;45.420;10.952;2023-01-19T09:34:58;99550.41;;;2.66;100.00
23427;BME280;41148;45.420;10.952;2023-01-19T09:37:25;99558.47;;;2.51;100.00
23427;BME280;41148;45.420;10.952;2023-01-19T09:39:52;99557.63;;;2.50;100.00
23427;BME280;41148;45.420;10.952;2023-01-19T09:42:42;99555.00;;;2.52;100.00
23427;BME280;41148;45.420;10.952;2023-01-19T09:45:21;99557.78;;;2.38;100.00
23427;BME280;41148;45.420;10.952;2023-01-19T09:47:52;99579.63;;;2.43;100.00
23427;BME280;41148;45.420;10.952;2023-01-19T09:50:27;99568.50;;;2.21;100.00
23427;BME280;41148;45.420;10.952;2023-01-19T09:53:50;99594.69;;;2.29;100.00
23427;BME280;41148;45.420;10.952;2023-01-19T09:56:19;99576.28;;;2.29;100.00
23427;BME280;41148;45.420;10.952;2023-01-19T09:58:50;99585.13;;;2.22;100.00
23427;BME280;41148;45.420;10.952;2023-01-19T10:07:22;99594.59;;;2.38;100.00
23427;BME280;41148;45.420;10.952;2023-01-19T10:10:16;99598.25;;;2.25;100.00
23427;BME280;41148;45.420;10.952;2023-01-19T10:15:44;99596.66;;;2.10;100.00
23427;BME280;41148;45.420;10.952;2023-01-19T10:18:24;99594.00;;;2.15;100.00
23427;BME280;41148;45.420;10.952;2023-01-19T10:21:11;99592.22;;;2.17;100.00
23427;BME280;41148;45.420;10.952;2023-01-19T10:23:56;99605.25;;;2.26;100.00
23427;BME280;41148;45.420;10.952;2023-01-19T10:26:33;99587.97;;;2.05;100.00
23427;BME280;41148;45.420;10.952;2023-01-19T10:29:11;99601.19;;;1.97;100.00
23427;BME280;41148;45.420;10.952;2023-01-19T10:31:45;99583.72;;;1.92;100.00
23427;BME280;41148;45.420;10.952;2023-01-19T10:34:18;99588.25;;;1.79;100.00
23427;BME280;41148;45.420;10.952;2023-01-19T10:36:57;99611.63;;;2.02;100.00
23427;BME280;41148;45.420;10.952;2023-01-19T10:39:26;99608.19;;;1.98;100.00
23427;BME280;41148;45.420;10.952;2023-01-19T10:41:53;99595.13;;;1.91;100.00
23427;BME280;41148;45.420;10.952;2023-01-19T10:44:27;99591.69;;;1.83;100.00
23427;BME280;41148;45.420;10.952;2023-01-19T10:46:57;99603.06;;;1.86;100.00
23427;BME280;41148;45.420;10.952;2023-01-19T10:49:34;99575.19;;;1.75;100.00
23427;BME280;41148;45.420;10.952;2023-01-19T10:52:05;99590.81;;;1.85;100.00
23427;BME280;41148;45.420;10.952;2023-01-19T10:54:35;99597.91;;;1.77;100.00
23427;BME280;41148;45.420;10.952;2023-01-19T10:57:08;99586.34;;;1.92;100.00
23427;BME280;41148;45.420;10.952;2023-01-19T10:59:52;99580.50;;;1.65;100.00
23427;BME280;41148;45.420;10.952;2023-01-19T11:02:29;99589.25;;;1.67;100.00
23427;BME280;41148;45.420;10.952;2023-01-19T11:05:00;99582.34;;;1.57;100.00
23427;BME280;41148;45.420;10.952;2023-01-19T11:07:32;99576.16;;;1.61;100.00
23427;BME280;41148;45.420;10.952;2023-01-19T11:12:46;99570.19;;;1.46;100.00
23427;BME280;41148;45.420;10.952;2023-01-19T11:15:22;99565.72;;;1.57;100.00
23427;BME280;41148;45.420;10.952;2023-01-19T11:17:51;99567.41;;;1.62;100.00
23427;BME280;41148;45.420;10.952;2023-01-19T11:20:28;99555.03;;;1.72;100.00
23427;BME280;41148;45.420;10.952;2023-01-19T11:23:04;99556.81;;;1.71;100.00
23427;BME280;41148;45.420;10.952;2023-01-19T11:25:34;99546.38;;;1.65;100.00
23427;BME280;41148;45.420;10.952;2023-01-19T11:28:03;99534.94;;;1.69;100.00
23427;BME280;41148;45.420;10.952;2023-01-19T11:30:31;99551.38;;;1.88;100.00
23427;BME280;41148;45.420;10.952;2023-01-19T11:33:03;99547.81;;;1.95;100.00
23427;BME280;41148;45.420;10.952;2023-01-19T11:38:16;99548.44;;;2.16;100.00
23427;BME280;41148;45.420;10.952;2023-01-19T11:40:56;99537.28;;;1.97;100.00
23427;BME280;41148;45.420;10.952;2023-01-19T11:43:28;99545.00;;;2.09;100.00
23427;BME280;41148;45.420;10.952;2023-01-19T11:46:16;99532.81;;;2.02;100.00
23427;BME280;41148;45.420;10.952;2023-01-19T11:49:04;99527.59;;;2.00;100.00
23427;BME280;41148;45.420;10.952;2023-01-19T11:51:48;99516.03;;;2.15;100.00
23427;BME280;41148;45.420;10.952;2023-01-19T11:54:25;99524.69;;;2.25;100.00
23427;BME280;41148;45.420;10.952;2023-01-19T11:56:59;99522.63;;;2.47;100.00
23427;BME280;41148;45.420;10.952;2023-01-19T11:59:27;99505.09;;;2.47;100.00
23427;BME280;41148;45.420;10.952;2023-01-19T12:01:58;99533.75;;;2.66;100.00
23427;BME280;41148;45.420;10.952;2023-01-19T12:04:29;99512.16;;;2.44;100.00
23427;BME280;41148;45.420;10.952;2023-01-19T12:07:02;99540.72;;;2.68;100.00
23427;BME280;41148;45.420;10.952;2023-01-19T12:09:44;99518.88;;;2.65;100.00
23427;BME280;41148;45.420;10.952;2023-01-19T12:12:24;99515.31;;;2.67;100.00
23427;BME280;41148;45.420;10.952;2023-01-19T12:18:38;99528.41;;;2.72;100.00
23427;BME280;41148;45.420;10.952;2023-01-19T12:21:07;99515.31;;;2.67;100.00
23427;BME280;41148;45.420;10.952;2023-01-19T12:26:37;99519.31;;;2.93;100.00
23427;BME280;41148;45.420;10.952;2023-01-19T12:29:12;99519.53;;;2.80;100.00
23427;BME280;41148;45.420;10.952;2023-01-19T12:31:43;99505.50;;;2.78;100.00
23427;BME280;41148;45.420;10.952;2023-01-19T12:34:27;99520.09;;;2.99;100.00
23427;BME280;41148;45.420;10.952;2023-01-19T12:37:01;99518.22;;;3.06;100.00
23427;BME280;41148;45.420;10.952;2023-01-19T12:39:31;99525.91;;;3.18;100.00
23427;BME280;41148;45.420;10.952;2023-01-19T12:42:06;99525.94;;;3.16;100.00
23427;BME280;41148;45.420;10.952;2023-01-19T12:44:38;99527.56;;;3.25;100.00
23427;BME280;41148;45.420;10.952;2023-01-19T12:49:54;99512.09;;;3.05;100.00
23427;BME280;41148;45.420;10.952;2023-01-19T12:52:31;99511.31;;;3.00;100.00
23427;BME280;41148;45.420;10.952;2023-01-19T12:55:05;99510.16;;;3.16;100.00
23427;BME280;41148;45.420;10.952;2023-01-19T12:58:36;99510.09;;;3.21;100.00
23427;BME280;41148;45.420;10.952;2023-01-19T13:01:14;99519.53;;;3.33;100.00
23427;BME280;41148;45.420;10.952;2023-01-19T13:03:56;99518.44;;;3.44;100.00
23427;BME280;41148;45.420;10.952;2023-01-19T13:09:36;99532.28;;;3.56;100.00
23427;BME280;41148;45.420;10.952;2023-01-19T13:14:43;99535.59;;;3.68;100.00
23427;BME280;41148;45.420;10.952;2023-01-19T13:17:22;99527.34;;;3.85;100.00
23427;BME280;41148;45.420;10.952;2023-01-19T13:19:57;99529.09;;;3.86;100.00
23427;BME280;41148;45.420;10.952;2023-01-19T13:25:24;99528.81;;;4.00;100.00
23427;BME280;41148;45.420;10.952;2023-01-19T13:27:53;99539.25;;;4.06;100.00
23427;BME280;41148;45.420;10.952;2023-01-19T13:30:24;99541.78;;;4.11;100.00
23427;BME280;41148;45.420;10.952;2023-01-19T13:33:04;99549.72;;;4.09;100.00
23427;BME280;41148;45.420;10.952;2023-01-19T13:35:32;99553.22;;;4.10;100.00
23427;BME280;41148;45.420;10.952;2023-01-19T13:38:00;99543.66;;;4.04;100.00
23427;BME280;41148;45.420;10.952;2023-01-19T13:40:35;99552.22;;;4.17;100.00
23427;BME280;41148;45.420;10.952;2023-01-19T13:43:13;99554.06;;;4.12;100.00
23427;BME280;41148;45.420;10.952;2023-01-19T13:45:46;99561.00;;;4.17;100.00
23427;BME280;41148;45.420;10.952;2023-01-19T13:48:20;99553.13;;;4.14;100.00